createdAt,value
2018-12-21T00:02:24.121Z,17.70
2018-12-21T00:04:52.710Z,18.17
2018-12-21T00:07:21.405Z,17.23
2018-12-21T00:09:49.958Z,14.43
2018-12-21T00:12:18.620Z,14.67
2018-12-21T00:14:47.221Z,14.43
2018-12-21T00:17:15.753Z,14.17
2018-12-21T00:19:44.323Z,14.03
2018-12-21T00:22:12.890Z,12.53
2018-12-21T00:24:41.411Z,12.57
2018-12-21T00:27:09.978Z,12.07
2018-12-21T00:29:38.510Z,10.73
2018-12-21T00:32:12.378Z,10.90
2018-12-21T00:34:46.216Z,10.40
2018-12-21T00:37:20.086Z,10.37
2018-12-21T00:39:53.906Z,11.30
2018-12-21T00:42:28.604Z,10.47
2018-12-21T00:45:01.334Z,10.10
2018-12-21T00:47:30.098Z,10.53
2018-12-21T00:49:58.665Z,11.23
2018-12-21T00:52:27.270Z,10.50
2018-12-21T00:54:55.818Z,10.37
2018-12-21T00:57:24.379Z,9.83
2018-12-21T00:59:52.919Z,10.50
2018-12-21T01:02:21.504Z,9.97
2018-12-21T01:04:50.193Z,9.47
2018-12-21T01:07:18.735Z,10.37
2018-12-21T01:09:48.445Z,10.27
2018-12-21T01:12:16.999Z,9.70
2018-12-21T01:14:45.591Z,9.83
2018-12-21T01:17:14.178Z,10.07
2018-12-21T01:19:42.722Z,11.13
2018-12-21T01:22:11.273Z,10.57
2018-12-21T01:24:39.811Z,11.73
2018-12-21T01:27:08.438Z,11.50
2018-12-21T01:29:36.970Z,11.20
2018-12-21T01:32:05.598Z,11.57
2018-12-21T01:34:34.176Z,11.47
2018-12-21T01:37:02.806Z,12.77
2018-12-21T01:39:31.404Z,12.57
2018-12-21T01:42:00.046Z,12.77
2018-12-21T01:44:28.578Z,13.03
2018-12-21T01:46:57.460Z,12.50
2018-12-21T01:49:26.103Z,13.03
2018-12-21T01:51:54.657Z,11.70
2018-12-21T01:54:23.245Z,12.77
2018-12-21T01:56:51.831Z,12.87
2018-12-21T01:59:20.411Z,12.60
2018-12-21T02:01:48.969Z,11.93
2018-12-21T02:04:17.512Z,11.70
2018-12-21T02:06:46.403Z,11.70
2018-12-21T02:09:15.052Z,10.97
2018-12-21T02:11:44.238Z,10.17
2018-12-21T02:14:12.918Z,10.57
2018-12-21T02:16:41.750Z,9.47
2018-12-21T02:19:11.748Z,9.53
2018-12-21T02:21:40.403Z,9.13
2018-12-21T02:24:08.933Z,9.10
2018-12-21T02:26:37.497Z,8.57
2018-12-21T02:29:06.057Z,8.73
2018-12-21T02:31:34.606Z,8.40
2018-12-21T02:34:03.277Z,8.27
2018-12-21T02:36:31.933Z,7.83
2018-12-21T02:39:00.508Z,7.03
2018-12-21T02:41:29.121Z,7.67
2018-12-21T02:43:57.663Z,7.43
2018-12-21T02:46:26.204Z,6.27
2018-12-21T02:48:54.830Z,6.73
2018-12-21T02:51:23.407Z,6.47
2018-12-21T02:53:51.948Z,7.10
2018-12-21T02:56:20.449Z,7.17
2018-12-21T02:58:49.006Z,6.83
2018-12-21T03:01:17.679Z,6.70
2018-12-21T03:03:46.189Z,7.07
2018-12-21T03:06:14.898Z,7.50
2018-12-21T03:08:43.539Z,7.60
2018-12-21T03:11:12.511Z,7.53
2018-12-21T03:13:41.047Z,7.53
2018-12-21T03:16:09.617Z,8.13
2018-12-21T03:18:38.185Z,8.17
2018-12-21T03:21:06.743Z,8.60
2018-12-21T03:23:35.259Z,7.67
2018-12-21T03:26:03.819Z,8.17
2018-12-21T03:28:33.443Z,7.87
2018-12-21T03:31:01.994Z,9.40
2018-12-21T03:33:30.698Z,8.93
2018-12-21T03:35:59.236Z,8.53
2018-12-21T03:38:27.804Z,9.60
2018-12-21T03:40:56.349Z,10.13
2018-12-21T03:43:25.775Z,10.40
2018-12-21T03:45:54.314Z,9.23
2018-12-21T03:48:23.602Z,9.93
2018-12-21T03:50:52.159Z,10.27
2018-12-21T03:53:20.821Z,10.13
2018-12-21T03:55:49.443Z,10.33
2018-12-21T03:58:17.984Z,10.07
2018-12-21T04:00:46.550Z,10.93
2018-12-21T04:03:16.121Z,10.97
2018-12-21T04:05:44.713Z,11.23
2018-12-21T04:08:13.263Z,11.03
2018-12-21T04:10:41.839Z,11.70
2018-12-21T04:13:10.341Z,11.77
2018-12-21T04:15:38.884Z,11.30
2018-12-21T04:18:07.420Z,11.23
2018-12-21T04:20:35.946Z,10.93
2018-12-21T04:23:04.552Z,12.13
2018-12-21T04:25:33.078Z,12.37
2018-12-21T04:28:01.623Z,12.17
2018-12-21T04:30:30.230Z,12.70
2018-12-21T04:32:58.815Z,13.10
2018-12-21T04:35:27.371Z,12.07
2018-12-21T04:37:55.901Z,11.80
2018-12-21T04:40:24.520Z,11.63
2018-12-21T04:42:53.107Z,11.70
2018-12-21T04:45:22.215Z,12.57
2018-12-21T04:47:50.751Z,12.70
2018-12-21T04:50:19.333Z,11.40
2018-12-21T04:52:47.863Z,12.30
2018-12-21T04:55:16.429Z,10.57
2018-12-21T04:57:44.984Z,11.93
2018-12-21T05:00:13.922Z,12.17
2018-12-21T05:02:42.533Z,11.73
2018-12-21T05:05:11.219Z,11.23
2018-12-21T05:07:39.865Z,10.57
2018-12-21T05:10:09.606Z,11.30
2018-12-21T05:12:38.145Z,12.27
2018-12-21T05:15:07.623Z,11.63
2018-12-21T05:17:36.177Z,11.33
2018-12-21T05:20:05.166Z,12.00
2018-12-21T05:22:33.720Z,11.77
2018-12-21T05:25:02.507Z,13.70
2018-12-21T05:27:31.120Z,12.80
2018-12-21T05:29:59.762Z,13.93
2018-12-21T05:32:28.592Z,14.30
2018-12-21T05:35:00.247Z,14.23
2018-12-21T05:37:30.059Z,13.53
2018-12-21T05:39:58.845Z,15.13
2018-12-21T05:42:27.499Z,14.77
2018-12-21T05:44:57.173Z,14.93
2018-12-21T05:47:25.723Z,15.63
2018-12-21T05:49:54.303Z,14.97
2018-12-21T05:52:23.123Z,15.20
2018-12-21T05:54:51.655Z,15.50
2018-12-21T05:57:20.227Z,14.93
2018-12-21T05:59:48.786Z,14.17
2018-12-21T06:02:17.342Z,14.70
2018-12-21T06:04:45.907Z,14.13
2018-12-21T06:07:14.710Z,14.87
2018-12-21T06:09:43.685Z,14.83
2018-12-21T06:12:12.373Z,14.23
2018-12-21T06:14:40.938Z,14.27
2018-12-21T06:17:09.542Z,15.00
2018-12-21T06:19:38.150Z,13.73
2018-12-21T06:22:07.728Z,13.77
2018-12-21T06:24:36.285Z,13.33
2018-12-21T06:27:04.858Z,11.87
2018-12-21T06:29:33.453Z,11.30
2018-12-21T06:32:01.997Z,11.57
2018-12-21T06:34:30.582Z,11.83
2018-12-21T06:36:59.189Z,11.43
2018-12-21T06:39:27.750Z,11.60
2018-12-21T06:41:56.935Z,11.70
2018-12-21T06:44:27.437Z,11.53
2018-12-21T06:46:55.981Z,11.17
2018-12-21T06:49:24.552Z,13.13
2018-12-21T06:51:54.122Z,10.87
2018-12-21T06:54:22.685Z,10.90
2018-12-21T06:56:51.253Z,13.07
2018-12-21T06:59:19.815Z,11.70
2018-12-21T07:01:48.323Z,11.50
2018-12-21T07:04:17.587Z,11.67
2018-12-21T07:06:46.145Z,11.30
2018-12-21T07:09:15.470Z,11.27
2018-12-21T07:11:43.996Z,11.73
2018-12-21T07:14:12.558Z,11.73
2018-12-21T07:16:41.282Z,13.00
2018-12-21T07:19:09.844Z,12.90
2018-12-21T07:21:38.498Z,12.67
2018-12-21T07:24:07.906Z,12.13
2018-12-21T07:26:36.476Z,13.23
2018-12-21T07:29:05.039Z,11.83
2018-12-21T07:31:33.742Z,12.43
2018-12-21T07:34:02.310Z,12.90
2018-12-21T07:36:31.158Z,11.93
2018-12-21T07:38:59.658Z,13.47
2018-12-21T07:41:29.055Z,10.40
2018-12-21T07:43:57.599Z,11.77
2018-12-21T07:46:26.167Z,11.00
2018-12-21T07:48:54.731Z,10.50
2018-12-21T07:51:24.159Z,9.27
2018-12-21T07:53:52.943Z,9.33
2018-12-21T07:56:21.595Z,9.07
2018-12-21T07:58:57.061Z,9.27
2018-12-21T08:01:20.833Z,8.53
2018-12-21T08:03:49.391Z,8.73
2018-12-21T08:06:17.941Z,8.23
2018-12-21T08:08:46.469Z,8.10
2018-12-21T08:11:15.019Z,6.70
2018-12-21T08:13:43.551Z,6.93
2018-12-21T08:16:12.268Z,6.70
2018-12-21T08:18:41.659Z,6.63
2018-12-21T08:21:10.226Z,6.00
2018-12-21T08:23:44.255Z,5.83
2018-12-21T08:26:09.314Z,5.67
2018-12-21T08:28:37.852Z,5.40
2018-12-21T08:31:06.395Z,5.33
2018-12-21T08:33:35.232Z,5.87
2018-12-21T08:36:03.931Z,5.40
2018-12-21T08:38:32.514Z,5.60
2018-12-21T08:41:01.945Z,5.23
2018-12-21T08:43:30.487Z,5.20
2018-12-21T08:45:59.131Z,5.20
2018-12-21T08:48:28.485Z,5.37
2018-12-21T08:50:57.045Z,5.07
2018-12-21T08:53:25.623Z,5.30
2018-12-21T08:55:54.167Z,5.60
2018-12-21T08:58:23.768Z,5.17
2018-12-21T09:00:52.303Z,5.80
2018-12-21T09:03:20.847Z,5.27
2018-12-21T09:05:49.727Z,5.73
2018-12-21T09:08:18.261Z,5.83
2018-12-21T09:10:47.071Z,5.93
2018-12-21T09:13:15.826Z,5.23
2018-12-21T09:15:44.586Z,6.00
2018-12-21T09:18:13.206Z,6.10
2018-12-21T09:20:42.942Z,5.83
2018-12-21T09:23:11.446Z,5.70
2018-12-21T09:25:39.944Z,5.20
2018-12-21T09:28:08.549Z,5.30
2018-12-21T09:30:37.100Z,5.63
2018-12-21T09:33:05.658Z,5.87
2018-12-21T09:35:34.764Z,5.50
2018-12-21T09:38:03.356Z,5.70
2018-12-21T09:40:32.975Z,5.50
2018-12-21T09:43:02.308Z,5.60
2018-12-21T09:45:30.879Z,5.57
2018-12-21T09:48:00.140Z,5.67
2018-12-21T09:50:28.817Z,5.03
2018-12-21T09:52:57.780Z,5.37
2018-12-21T09:55:26.447Z,4.60
2018-12-21T09:57:55.103Z,4.90
2018-12-21T10:00:23.928Z,4.80
2018-12-21T10:02:52.663Z,4.50
2018-12-21T10:05:21.805Z,4.60
2018-12-21T10:07:50.559Z,4.13
2018-12-21T10:10:19.260Z,4.43
2018-12-21T10:12:47.813Z,4.27
2018-12-21T10:15:17.336Z,4.30
2018-12-21T10:17:46.059Z,4.13
2018-12-21T10:20:15.040Z,4.17
2018-12-21T10:22:44.248Z,3.97
2018-12-21T10:25:12.842Z,4.07
2018-12-21T10:27:41.480Z,3.97
2018-12-21T10:30:12.236Z,4.03
2018-12-21T10:32:40.770Z,4.30
2018-12-21T10:35:11.496Z,4.23
2018-12-21T10:37:40.062Z,3.90
2018-12-21T10:40:09.090Z,3.77
2018-12-21T10:42:39.198Z,4.03
2018-12-21T10:45:07.979Z,3.87
2018-12-21T10:47:36.524Z,3.90
2018-12-21T10:50:08.506Z,3.87
2018-12-21T10:52:38.944Z,3.43
2018-12-21T10:55:09.276Z,3.87
2018-12-21T10:57:38.240Z,3.73
2018-12-21T11:00:10.613Z,3.40
2018-12-21T11:02:39.169Z,4.17
2018-12-21T11:05:08.411Z,3.87
2018-12-21T11:07:36.977Z,3.73
2018-12-21T11:10:08.223Z,3.03
2018-12-21T11:12:36.887Z,2.80
2018-12-21T11:15:06.043Z,3.43
2018-12-21T11:17:34.623Z,2.80
2018-12-21T11:20:03.335Z,3.10
2018-12-21T11:22:33.089Z,3.30
2018-12-21T11:25:01.834Z,2.87
2018-12-21T11:27:31.276Z,2.80
2018-12-21T11:29:59.856Z,2.70
2018-12-21T11:32:28.516Z,2.70
2018-12-21T11:34:57.058Z,2.73
2018-12-21T11:37:26.380Z,3.23
2018-12-21T11:39:54.910Z,2.90
2018-12-21T11:42:23.494Z,3.00
2018-12-21T11:44:52.596Z,2.57
2018-12-21T11:47:21.171Z,2.77
2018-12-21T11:49:50.685Z,2.73
2018-12-21T11:52:20.095Z,3.00
2018-12-21T11:54:48.794Z,2.93
2018-12-21T11:57:24.610Z,2.83
2018-12-21T11:59:53.693Z,3.23
2018-12-21T12:02:22.469Z,3.73
2018-12-21T12:04:52.035Z,3.77
2018-12-21T12:07:21.909Z,3.90
2018-12-21T12:09:50.960Z,4.47
2018-12-21T12:12:19.682Z,4.40
2018-12-21T12:14:48.222Z,4.40
2018-12-21T12:17:16.830Z,4.37
2018-12-21T12:19:45.352Z,5.27
2018-12-21T12:22:14.060Z,5.67
2018-12-21T12:24:42.596Z,5.87
2018-12-21T12:27:12.526Z,6.30
2018-12-21T12:29:41.162Z,7.23
2018-12-21T12:32:09.736Z,7.30
2018-12-21T12:34:38.289Z,7.47
2018-12-21T12:37:06.826Z,6.97
2018-12-21T12:39:35.422Z,7.83
2018-12-21T12:42:03.973Z,7.00
2018-12-21T12:44:32.817Z,8.10
2018-12-21T12:47:01.347Z,7.50
2018-12-21T12:49:29.885Z,8.47
2018-12-21T12:51:58.607Z,7.47
2018-12-21T12:54:27.187Z,6.63
2018-12-21T12:56:55.713Z,6.87
2018-12-21T12:59:30.873Z,6.73
2018-12-21T13:01:59.414Z,6.30
2018-12-21T13:04:28.778Z,6.50
2018-12-21T13:06:57.480Z,6.63
2018-12-21T13:09:26.050Z,7.03
2018-12-21T13:11:54.586Z,7.07
2018-12-21T13:14:23.200Z,7.30
2018-12-21T13:16:51.792Z,7.33
2018-12-21T13:19:23.310Z,7.60
2018-12-21T13:21:51.784Z,7.27
2018-12-21T13:24:20.414Z,7.43
2018-12-21T13:26:48.998Z,7.20
2018-12-21T13:29:17.604Z,7.17
2018-12-21T13:31:46.235Z,7.10
2018-12-21T13:34:14.791Z,7.20
2018-12-21T13:36:43.316Z,7.50
2018-12-21T13:39:11.915Z,7.67
2018-12-21T13:41:41.173Z,7.77
2018-12-21T13:44:09.946Z,7.57
2018-12-21T13:46:39.097Z,7.33
2018-12-21T13:49:07.656Z,6.97
2018-12-21T13:51:36.241Z,6.93
2018-12-21T13:54:05.720Z,7.17
2018-12-21T13:56:34.252Z,7.80
2018-12-21T13:59:02.988Z,7.00
2018-12-21T14:01:31.570Z,6.63
2018-12-21T14:04:00.108Z,6.73
2018-12-21T14:06:28.690Z,6.87
2018-12-21T14:08:57.268Z,6.10
2018-12-21T14:11:28.753Z,6.33
2018-12-21T14:13:57.313Z,5.87
2018-12-21T14:16:25.828Z,6.50
2018-12-21T14:18:54.388Z,6.20
2018-12-21T14:21:23.039Z,6.37
2018-12-21T14:23:51.669Z,6.37
2018-12-21T14:26:20.238Z,6.60
2018-12-21T14:28:48.786Z,6.57
2018-12-21T14:31:17.373Z,6.43
2018-12-21T14:33:46.053Z,7.30
2018-12-21T14:36:15.463Z,7.67
2018-12-21T14:38:44.033Z,7.97
2018-12-21T14:41:12.594Z,7.43
2018-12-21T14:43:41.122Z,8.13
2018-12-21T14:46:09.635Z,6.97
2018-12-21T14:48:38.202Z,7.50
2018-12-21T14:51:07.294Z,8.00
2018-12-21T14:53:35.818Z,8.37
2018-12-21T14:56:04.414Z,8.30
2018-12-21T14:58:33.164Z,8.30
2018-12-21T15:01:01.694Z,8.47
2018-12-21T15:03:31.066Z,8.30
2018-12-21T15:05:59.634Z,8.13
2018-12-21T15:08:28.258Z,7.43
2018-12-21T15:10:56.817Z,7.40
2018-12-21T15:13:26.043Z,7.30
2018-12-21T15:15:54.705Z,5.67
2018-12-21T15:18:23.651Z,4.60
2018-12-21T15:20:52.679Z,4.13
2018-12-21T15:23:21.411Z,4.60
2018-12-21T15:25:50.014Z,4.53
2018-12-21T15:28:18.552Z,4.10
2018-12-21T15:30:47.210Z,4.57
2018-12-21T15:33:15.760Z,4.17
2018-12-21T15:35:44.492Z,4.60
2018-12-21T15:38:13.060Z,4.70
2018-12-21T15:40:41.667Z,4.40
2018-12-21T15:43:10.751Z,4.63
2018-12-21T15:45:39.343Z,4.70
2018-12-21T15:48:08.788Z,5.10
2018-12-21T15:50:37.616Z,4.97
2018-12-21T15:53:06.222Z,5.73
2018-12-21T15:55:34.803Z,4.90
2018-12-21T15:58:03.417Z,5.63
2018-12-21T16:00:32.119Z,4.77
2018-12-21T16:03:01.736Z,4.90
2018-12-21T16:05:30.341Z,4.93
2018-12-21T16:07:58.952Z,4.90
2018-12-21T16:10:27.610Z,4.10
2018-12-21T16:12:56.138Z,4.73
2018-12-21T16:15:24.679Z,4.33
2018-12-21T16:17:53.468Z,3.77
2018-12-21T16:20:22.010Z,3.93
2018-12-21T16:22:50.559Z,4.93
2018-12-21T16:25:19.098Z,4.30
2018-12-21T16:27:48.320Z,4.00
2018-12-21T16:30:17.100Z,4.20
2018-12-21T16:32:45.636Z,3.90
2018-12-21T16:35:14.196Z,3.80
2018-12-21T16:37:42.749Z,3.60
2018-12-21T16:40:11.774Z,2.80
2018-12-21T16:42:40.362Z,3.13
2018-12-21T16:45:11.665Z,2.90
2018-12-21T16:47:40.207Z,3.87
2018-12-21T16:50:12.105Z,3.03
2018-12-21T16:52:40.667Z,3.10
2018-12-21T16:55:10.545Z,3.00
2018-12-21T16:57:39.091Z,3.10
2018-12-21T17:00:13.202Z,3.13
2018-12-21T17:02:42.685Z,3.17
2018-12-21T17:05:12.216Z,2.87
2018-12-21T17:07:40.758Z,3.23
2018-12-21T17:10:18.878Z,2.57
2018-12-21T17:12:47.575Z,3.37
2018-12-21T17:15:17.027Z,3.27
2018-12-21T17:17:46.142Z,3.80
2018-12-21T17:20:14.711Z,4.23
2018-12-21T17:22:43.275Z,4.23
2018-12-21T17:25:13.815Z,3.27
2018-12-21T17:27:42.730Z,3.60
2018-12-21T17:30:12.326Z,4.20
2018-12-21T17:32:41.632Z,4.30
2018-12-21T17:35:10.662Z,4.67
2018-12-21T17:37:39.911Z,3.80
2018-12-21T17:40:10.399Z,4.70
2018-12-21T17:42:38.945Z,4.57
2018-12-21T17:45:10.275Z,4.40
2018-12-21T17:47:39.805Z,3.80
2018-12-21T17:50:09.838Z,4.87
2018-12-21T17:52:38.389Z,4.77
2018-12-21T17:55:08.502Z,5.00
2018-12-21T17:57:37.055Z,5.00
2018-12-21T18:00:11.970Z,5.57
2018-12-21T18:02:41.162Z,5.27
2018-12-21T18:05:09.701Z,4.10
2018-12-21T18:07:38.924Z,5.00
2018-12-21T18:10:09.008Z,4.80
2018-12-21T18:12:37.770Z,4.30
2018-12-21T18:15:07.512Z,4.17
2018-12-21T18:17:36.022Z,4.97
2018-12-21T18:20:06.793Z,4.43
2018-12-21T18:22:35.308Z,4.97
2018-12-21T18:25:08.776Z,4.40
2018-12-21T18:27:37.606Z,3.80
2018-12-21T18:30:12.463Z,4.50
2018-12-21T18:32:41.875Z,3.60
2018-12-21T18:35:19.660Z,3.97
2018-12-21T18:37:53.263Z,4.13
2018-12-21T18:40:21.782Z,4.40
2018-12-21T18:42:50.333Z,3.30
2018-12-21T18:45:18.868Z,3.20
2018-12-21T18:47:47.527Z,3.40
2018-12-21T18:50:16.129Z,4.20
2018-12-21T18:52:44.667Z,3.60
2018-12-21T18:55:15.140Z,3.87
2018-12-21T18:57:43.768Z,3.73
2018-12-21T19:00:14.447Z,3.57
2018-12-21T19:02:43.032Z,3.00
2018-12-21T19:05:11.697Z,3.37
2018-12-21T19:07:40.222Z,3.03
2018-12-21T19:10:10.043Z,3.10
2018-12-21T19:12:38.567Z,2.30
2018-12-21T19:15:09.619Z,2.90
2018-12-21T19:17:38.863Z,3.37
2018-12-21T19:20:11.908Z,2.67
2018-12-21T19:22:40.734Z,3.23
2018-12-21T19:25:10.884Z,2.63
2018-12-21T19:27:39.372Z,2.50
2018-12-21T19:30:10.616Z,2.93
2018-12-21T19:32:40.523Z,2.60
2018-12-21T19:35:10.010Z,2.60
2018-12-21T19:37:38.548Z,3.00
2018-12-21T19:40:08.807Z,2.40
2018-12-21T19:42:37.639Z,2.70
2018-12-21T19:45:08.234Z,2.27
2018-12-21T19:47:38.100Z,2.50
2018-12-21T19:50:08.676Z,2.27
2018-12-21T19:52:37.258Z,1.87
2018-12-21T19:57:13.585Z,2.00
2018-12-21T19:59:42.532Z,2.00
2018-12-21T20:02:11.166Z,1.60
2018-12-21T20:04:40.628Z,2.00
2018-12-21T20:07:09.176Z,1.77
2018-12-21T20:09:37.784Z,1.80
2018-12-21T20:12:07.620Z,1.72
2018-12-21T20:14:36.126Z,1.60
2018-12-21T20:17:04.903Z,2.30
2018-12-21T20:19:34.004Z,2.30
2018-12-21T20:22:02.779Z,2.57
2018-12-21T20:24:35.311Z,2.20
2018-12-21T20:27:14.053Z,2.53
2018-12-21T20:29:43.587Z,2.10
2018-12-21T20:32:14.685Z,1.87
2018-12-21T20:34:43.504Z,2.10
2018-12-21T20:37:12.034Z,2.47
2018-12-21T20:39:43.607Z,2.00
2018-12-21T20:42:13.141Z,1.83
2018-12-21T20:44:41.700Z,2.07
2018-12-21T20:47:10.303Z,1.90
2018-12-21T20:49:38.981Z,1.80
2018-12-21T20:52:07.646Z,2.10
2018-12-21T20:54:36.367Z,2.30
2018-12-21T20:57:07.072Z,2.00
2018-12-21T20:59:35.621Z,2.10
2018-12-21T21:02:04.404Z,2.20
2018-12-21T21:04:33.255Z,3.70
2018-12-21T21:07:02.558Z,2.37
2018-12-21T21:09:31.169Z,1.83
2018-12-21T21:11:59.723Z,1.73
2018-12-21T21:14:28.400Z,1.80
2018-12-21T21:16:56.979Z,1.40
2018-12-21T21:19:28.045Z,1.87
2018-12-21T21:21:56.615Z,1.30
2018-12-21T21:24:26.795Z,1.10
2018-12-21T21:26:55.743Z,1.30
2018-12-21T21:29:24.542Z,1.30
2018-12-21T21:31:53.111Z,1.20
2018-12-21T21:34:21.980Z,1.20
2018-12-21T21:36:50.659Z,1.33
2018-12-21T21:39:19.479Z,1.40
2018-12-21T21:41:48.022Z,1.40
2018-12-21T21:44:18.390Z,1.40
2018-12-21T21:46:47.377Z,1.50
2018-12-21T21:49:16.252Z,1.63
2018-12-21T21:51:44.924Z,1.93
2018-12-21T21:54:13.508Z,1.43
2018-12-21T21:56:42.220Z,1.40
2018-12-21T21:59:11.000Z,1.47
2018-12-21T22:01:39.573Z,0.90
2018-12-21T22:04:08.620Z,0.90
2018-12-21T22:06:37.398Z,0.77
2018-12-21T22:09:07.061Z,1.10
2018-12-21T22:11:35.996Z,1.20
2018-12-21T22:14:04.610Z,0.97
2018-12-21T22:16:33.382Z,1.13
2018-12-21T22:19:01.928Z,1.10
2018-12-21T22:21:30.570Z,1.30
2018-12-21T22:23:59.193Z,2.50
2018-12-21T22:26:27.777Z,1.10
2018-12-21T22:28:56.410Z,0.97
2018-12-21T22:31:25.185Z,1.60
2018-12-21T22:33:53.735Z,1.17
2018-12-21T22:36:22.293Z,1.20
2018-12-21T22:38:50.848Z,1.10
2018-12-21T22:41:19.373Z,0.77
2018-12-21T22:43:47.927Z,1.00
2018-12-21T22:46:18.053Z,0.73
2018-12-21T22:48:46.660Z,1.00
2018-12-21T22:51:15.267Z,0.93
2018-12-21T22:53:43.816Z,0.80
2018-12-21T22:56:12.384Z,1.20
2018-12-21T22:58:41.087Z,1.37
2018-12-21T23:01:09.621Z,1.40
2018-12-21T23:03:38.799Z,0.90
2018-12-21T23:06:07.363Z,1.30
2018-12-21T23:08:35.932Z,1.40
2018-12-21T23:11:04.879Z,1.57
2018-12-21T23:13:33.452Z,2.00
2018-12-21T23:16:02.028Z,1.40
2018-12-21T23:18:30.951Z,1.80
2018-12-21T23:20:59.459Z,1.40
2018-12-21T23:23:28.649Z,1.60
2018-12-21T23:25:57.178Z,1.30
2018-12-21T23:28:25.729Z,1.83
2018-12-21T23:30:54.274Z,1.83
2018-12-21T23:33:22.827Z,1.97
2018-12-21T23:35:51.393Z,1.93
2018-12-21T23:38:19.908Z,1.97
2018-12-21T23:40:48.495Z,1.30
2018-12-21T23:43:17.056Z,1.17
2018-12-21T23:45:46.480Z,1.90
2018-12-21T23:48:15.167Z,1.30
2018-12-21T23:50:43.696Z,1.63
2018-12-21T23:53:12.369Z,1.20
2018-12-21T23:55:40.930Z,1.20
2018-12-21T23:58:13.661Z,1.60
